createdAt,value
2018-11-11T00:04:16.171Z,12.20
2018-11-11T00:09:20.423Z,12.20
2018-11-11T00:14:24.584Z,12.20
2018-11-11T00:19:28.793Z,12.20
2018-11-11T00:24:33.058Z,12.10
2018-11-11T00:29:37.280Z,12.20
2018-11-11T00:34:41.435Z,12.20
2018-11-11T00:39:45.847Z,12.20
2018-11-11T00:44:49.968Z,12.20
2018-11-11T00:49:54.177Z,12.20
2018-11-11T00:54:58.423Z,12.20
2018-11-11T01:00:02.583Z,12.20
2018-11-11T01:05:07.580Z,12.20
2018-11-11T01:10:14.417Z,12.20
2018-11-11T01:15:18.721Z,12.20
2018-11-11T01:20:22.881Z,12.20
2018-11-11T01:25:27.118Z,12.20
2018-11-11T01:30:31.312Z,12.10
2018-11-11T01:41:07.397Z,12.10
2018-11-11T01:46:11.569Z,12.10
2018-11-11T01:51:15.752Z,12.10
2018-11-11T01:56:19.942Z,12.10
2018-11-11T02:01:24.170Z,12.10
2018-11-11T02:06:28.938Z,12.10
2018-11-11T02:11:33.501Z,12.00
2018-11-11T02:16:37.735Z,12.10
2018-11-11T02:21:41.980Z,12.10
2018-11-11T02:26:46.077Z,12.10
2018-11-11T02:31:50.296Z,12.10
2018-11-11T02:36:54.504Z,12.10
2018-11-11T02:41:59.058Z,12.10
2018-11-11T02:47:03.575Z,12.10
2018-11-11T02:52:07.744Z,12.10
2018-11-11T02:57:11.938Z,12.10
2018-11-11T03:02:16.127Z,12.00
2018-11-11T03:07:20.317Z,12.00
2018-11-11T03:12:24.573Z,12.00
2018-11-11T03:17:28.803Z,12.10
2018-11-11T03:22:33.220Z,12.00
2018-11-11T03:27:37.433Z,12.00
2018-11-11T03:32:41.771Z,12.00
2018-11-11T03:37:46.536Z,11.90
2018-11-11T03:42:51.541Z,12.00
2018-11-11T03:47:55.720Z,11.90
2018-11-11T03:52:59.867Z,11.90
2018-11-11T03:58:04.060Z,11.90
2018-11-11T04:03:08.284Z,12.00
2018-11-11T04:08:12.456Z,11.90
2018-11-11T04:13:16.824Z,11.90
2018-11-11T04:18:20.982Z,11.90
2018-11-11T04:23:25.140Z,11.90
2018-11-11T04:28:29.696Z,11.90
2018-11-11T04:33:33.926Z,11.90
2018-11-11T04:38:38.143Z,11.90
2018-11-11T04:43:42.394Z,11.90
2018-11-11T04:48:46.563Z,11.90
2018-11-11T04:53:50.696Z,12.00
2018-11-11T04:58:54.972Z,11.90
2018-11-11T05:03:59.135Z,12.00
2018-11-11T05:09:03.859Z,12.00
2018-11-11T05:14:08.139Z,12.00
2018-11-11T05:19:12.291Z,12.00
2018-11-11T05:24:16.471Z,12.00
2018-11-11T05:29:20.633Z,11.90
2018-11-11T05:34:24.861Z,11.90
2018-11-11T05:39:29.098Z,11.90
2018-11-11T05:44:33.342Z,11.90
2018-11-11T05:49:37.541Z,12.00
2018-11-11T05:54:41.771Z,12.00
2018-11-11T05:59:46.352Z,11.90
2018-11-11T06:04:50.522Z,11.90
2018-11-11T06:09:54.690Z,11.90
2018-11-11T06:14:59.136Z,11.80
2018-11-11T06:20:03.342Z,11.80
2018-11-11T06:25:07.705Z,11.80
2018-11-11T06:30:12.563Z,11.80
2018-11-11T06:35:16.733Z,11.80
2018-11-11T06:40:21.405Z,11.80
2018-11-11T06:45:25.643Z,11.70
2018-11-11T06:50:29.817Z,11.70
2018-11-11T06:55:34.012Z,11.80
2018-11-11T07:00:38.272Z,11.80
2018-11-11T07:05:42.512Z,11.80
2018-11-11T07:10:46.706Z,11.80
2018-11-11T07:15:50.910Z,11.80
2018-11-11T07:20:55.081Z,11.90
2018-11-11T07:25:59.326Z,11.90
2018-11-11T07:31:03.609Z,11.90
2018-11-11T07:36:08.628Z,11.90
2018-11-11T07:41:12.799Z,11.90
2018-11-11T07:46:17.262Z,11.90
2018-11-11T07:51:21.413Z,12.00
2018-11-11T07:56:25.558Z,12.00
2018-11-11T08:01:29.877Z,12.00
2018-11-11T08:06:34.016Z,12.00
2018-11-11T08:12:01.837Z,12.10
2018-11-11T08:17:06.106Z,12.10
2018-11-11T08:22:10.263Z,12.20
2018-11-11T08:27:14.429Z,12.20
2018-11-11T08:32:25.239Z,12.20
2018-11-11T08:37:29.483Z,12.20
2018-11-11T08:42:33.709Z,12.30
2018-11-11T08:47:37.901Z,12.30
2018-11-11T08:52:42.488Z,12.40
2018-11-11T08:57:46.978Z,12.40
2018-11-11T09:02:51.108Z,12.50
2018-11-11T09:07:55.352Z,12.50
2018-11-11T09:12:59.557Z,12.60
2018-11-11T09:18:03.843Z,12.80
2018-11-11T09:23:08.022Z,12.80
2018-11-11T09:28:12.180Z,13.00
2018-11-11T09:33:16.421Z,13.00
2018-11-11T09:38:20.650Z,13.10
2018-11-11T09:43:24.891Z,13.30
2018-11-11T09:48:29.130Z,13.50
2018-11-11T09:53:33.279Z,13.30
2018-11-11T09:58:37.561Z,13.70
2018-11-11T10:03:45.233Z,13.60
2018-11-11T10:09:53.376Z,14.00
2018-11-11T10:15:11.749Z,14.30
2018-11-11T10:20:20.172Z,14.30
2018-11-11T10:25:29.464Z,14.30
2018-11-11T10:30:38.977Z,14.40
2018-11-11T10:35:53.126Z,14.50
2018-11-11T10:41:00.048Z,14.60
2018-11-11T10:46:08.717Z,14.70
2018-11-11T10:51:13.114Z,14.60
2018-11-11T10:56:17.326Z,14.70
2018-11-11T11:02:30.048Z,14.80
2018-11-11T11:07:34.334Z,14.70
2018-11-11T11:12:38.526Z,14.80
2018-11-11T11:17:43.036Z,14.70
2018-11-11T11:22:47.498Z,14.70
2018-11-11T11:27:51.666Z,14.80
2018-11-11T11:32:55.972Z,14.70
2018-11-11T11:38:00.201Z,14.70
2018-11-11T11:43:04.582Z,14.80
2018-11-11T11:48:08.804Z,14.90
2018-11-11T11:53:12.992Z,14.80
2018-11-11T11:58:23.883Z,15.00
2018-11-11T12:03:28.132Z,15.00
2018-11-11T12:08:32.437Z,14.90
2018-11-11T12:13:36.574Z,14.80
2018-11-11T12:18:40.848Z,14.70
2018-11-11T12:23:45.061Z,14.60
2018-11-11T12:28:49.291Z,14.40
2018-11-11T12:33:53.519Z,14.20
2018-11-11T12:38:57.866Z,14.20
2018-11-11T12:44:01.954Z,14.10
2018-11-11T12:49:06.161Z,14.00
2018-11-11T12:54:10.385Z,13.90
2018-11-11T12:59:14.542Z,13.80
2018-11-11T13:04:18.699Z,13.80
2018-11-11T13:09:22.984Z,13.70
2018-11-11T13:14:27.254Z,13.60
2018-11-11T13:19:31.469Z,13.50
2018-11-11T13:24:35.699Z,13.40
2018-11-11T13:29:39.866Z,13.40
2018-11-11T13:34:44.501Z,13.30
2018-11-11T13:39:48.786Z,13.20
2018-11-11T13:44:53.024Z,13.10
2018-11-11T13:49:57.195Z,13.10
2018-11-11T13:55:01.394Z,13.10
2018-11-11T14:00:09.773Z,13.00
2018-11-11T14:05:13.993Z,13.00
2018-11-11T14:10:18.376Z,13.00
2018-11-11T14:15:24.801Z,12.90
2018-11-11T14:20:29.254Z,13.00
2018-11-11T14:25:33.503Z,13.00
2018-11-11T14:30:44.365Z,13.00
2018-11-11T14:35:48.598Z,13.00
2018-11-11T14:40:52.751Z,13.00
2018-11-11T14:45:56.996Z,12.90
2018-11-11T14:51:01.174Z,12.90
2018-11-11T14:56:05.983Z,13.00
2018-11-11T15:01:10.181Z,13.00
2018-11-11T15:06:15.309Z,12.90
2018-11-11T15:11:19.518Z,12.90
2018-11-11T15:16:23.692Z,12.90
2018-11-11T15:21:28.010Z,12.90
2018-11-11T15:26:32.270Z,12.90
2018-11-11T15:31:36.448Z,12.90
2018-11-11T15:36:41.056Z,12.80
2018-11-11T15:41:45.243Z,12.80
2018-11-11T15:46:50.097Z,12.80
2018-11-11T15:51:54.637Z,12.80
2018-11-11T15:56:59.331Z,12.80
2018-11-11T16:02:03.548Z,12.80
2018-11-11T16:07:07.997Z,12.70
2018-11-11T16:12:12.226Z,12.80
2018-11-11T16:17:17.057Z,12.80
2018-11-11T16:22:21.718Z,12.80
2018-11-11T16:27:25.970Z,12.80
2018-11-11T16:32:30.204Z,12.80
2018-11-11T16:37:34.491Z,12.80
2018-11-11T16:42:38.932Z,12.80
2018-11-11T16:47:43.119Z,12.80
2018-11-11T16:52:48.164Z,12.80
2018-11-11T16:57:52.358Z,12.80
2018-11-11T17:02:58.515Z,12.70
2018-11-11T17:08:02.928Z,12.70
2018-11-11T17:13:09.037Z,12.80
2018-11-11T17:18:13.584Z,12.80
2018-11-11T17:23:17.749Z,12.80
2018-11-11T17:28:22.094Z,12.80
2018-11-11T17:33:26.261Z,12.70
2018-11-11T17:38:33.845Z,12.80
2018-11-11T17:43:38.349Z,12.80
2018-11-11T17:48:42.919Z,12.80
2018-11-11T17:53:47.228Z,12.70
2018-11-11T17:58:51.427Z,12.70
2018-11-11T18:03:56.924Z,12.70
2018-11-11T18:09:02.317Z,12.70
2018-11-11T18:14:06.742Z,12.60
2018-11-11T18:19:11.039Z,12.60
2018-11-11T18:24:15.320Z,12.60
2018-11-11T18:29:20.201Z,12.60
2018-11-11T18:34:24.446Z,12.60
2018-11-11T18:39:28.592Z,12.60
2018-11-11T18:44:33.687Z,12.60
2018-11-11T18:49:38.051Z,12.50
2018-11-11T18:54:42.357Z,12.50
2018-11-11T18:59:46.613Z,12.40
2018-11-11T19:04:50.823Z,12.50
2018-11-11T19:09:55.306Z,12.40
2018-11-11T19:14:59.721Z,12.40
2018-11-11T19:20:04.867Z,12.50
2018-11-11T19:25:12.119Z,12.40
2018-11-11T19:30:20.371Z,12.40
2018-11-11T19:35:25.995Z,12.30
2018-11-11T19:40:31.340Z,12.30
2018-11-11T19:45:36.989Z,12.30
2018-11-11T19:50:44.599Z,12.30
2018-11-11T19:55:48.989Z,12.30
2018-11-11T20:00:53.333Z,12.30
2018-11-11T20:05:58.277Z,12.30
2018-11-11T20:11:02.816Z,12.30
2018-11-11T20:16:08.625Z,12.30
2018-11-11T20:21:16.514Z,12.30
2018-11-11T20:26:20.938Z,12.20
2018-11-11T20:31:29.513Z,12.20
2018-11-11T20:36:35.586Z,12.30
2018-11-11T20:41:40.386Z,12.30
2018-11-11T20:46:46.461Z,12.20
2018-11-11T20:51:51.663Z,12.20
2018-11-11T20:56:56.093Z,12.20
2018-11-11T21:02:01.925Z,12.20
2018-11-11T21:07:07.002Z,12.20
2018-11-11T21:12:12.016Z,12.20
2018-11-11T21:17:17.987Z,12.20
2018-11-11T21:22:22.388Z,12.30
2018-11-11T21:27:26.922Z,12.30
2018-11-11T21:32:32.148Z,12.10
2018-11-11T21:37:36.675Z,12.20
2018-11-11T21:42:41.970Z,12.20
2018-11-11T21:47:46.600Z,12.20
2018-11-11T21:53:22.249Z,12.20
2018-11-11T21:58:26.779Z,12.20
2018-11-11T22:03:31.165Z,12.10
2018-11-11T22:08:35.983Z,12.20
2018-11-11T22:13:42.431Z,12.20
2018-11-11T22:18:46.883Z,12.10
2018-11-11T22:23:51.320Z,12.10
2018-11-11T22:28:55.750Z,12.10
2018-11-11T22:33:59.949Z,12.20
2018-11-11T22:39:06.083Z,12.20
2018-11-11T22:44:10.399Z,12.20
2018-11-11T22:49:14.820Z,12.30
2018-11-11T22:54:19.501Z,12.30
2018-11-11T22:59:23.754Z,12.20
2018-11-11T23:04:28.032Z,12.20
2018-11-11T23:09:32.044Z,12.20
2018-11-11T23:14:36.277Z,12.30
2018-11-11T23:19:40.500Z,12.30
2018-11-11T23:24:44.862Z,12.40
2018-11-11T23:29:49.045Z,12.30
2018-11-11T23:34:53.467Z,12.30
2018-11-11T23:39:57.693Z,12.40
2018-11-11T23:45:01.919Z,12.40
2018-11-11T23:50:09.698Z,12.40
2018-11-11T23:55:15.948Z,11.90
